createdAt,value
2023-02-24T00:00:34.233Z,26.37
2023-02-24T00:01:16.006Z,24.97
2023-02-24T00:02:00.133Z,25.33
2023-02-24T00:02:32.192Z,25.30
2023-02-24T00:03:11.355Z,25.63
2023-02-24T00:03:45.127Z,25.43
2023-02-24T00:04:18.461Z,25.17
2023-02-24T00:04:51.992Z,25.57
2023-02-24T00:05:23.878Z,24.97
2023-02-24T00:05:55.715Z,25.87
2023-02-24T00:06:37.043Z,24.70
2023-02-24T00:07:10.965Z,25.10
2023-02-24T00:07:42.768Z,25.77
2023-02-24T00:08:14.618Z,24.80
2023-02-24T00:08:47.436Z,26.30
2023-02-24T00:09:26.330Z,25.80
2023-02-24T00:09:58.146Z,27.07
2023-02-24T00:10:30.179Z,26.27
2023-02-24T00:11:09.890Z,27.27
2023-02-24T00:11:46.317Z,27.23
2023-02-24T00:12:18.938Z,26.90
2023-02-24T00:12:50.762Z,26.17
2023-02-24T00:13:22.656Z,27.87
2023-02-24T00:13:54.448Z,27.60
2023-02-24T00:14:29.533Z,27.67
2023-02-24T00:15:01.309Z,28.20
2023-02-24T00:15:33.592Z,26.17
2023-02-24T00:16:06.297Z,24.83
2023-02-24T00:16:38.890Z,27.67
2023-02-24T00:17:14.704Z,26.27
2023-02-24T00:17:46.939Z,27.10
2023-02-24T00:18:18.893Z,26.43
2023-02-24T00:18:51.246Z,26.00
2023-02-24T00:19:25.675Z,26.40
2023-02-24T00:19:57.679Z,26.70
2023-02-24T00:20:33.628Z,27.60
2023-02-24T00:21:13.331Z,27.57
2023-02-24T00:21:45.670Z,25.57
2023-02-24T00:22:17.422Z,26.60
2023-02-24T00:22:49.248Z,27.77
2023-02-24T00:23:21.182Z,27.27
2023-02-24T00:23:53.765Z,24.10
2023-02-24T00:24:26.077Z,24.53
2023-02-24T00:25:01.395Z,24.23
2023-02-24T00:25:33.230Z,24.93
2023-02-24T00:26:07.187Z,26.83
2023-02-24T00:26:39.608Z,26.13
2023-02-24T00:27:12.228Z,25.60
2023-02-24T00:27:44.189Z,24.13
2023-02-24T00:28:16.015Z,25.00
2023-02-24T00:28:47.877Z,25.43
2023-02-24T00:29:20.037Z,24.10
2023-02-24T00:29:51.958Z,25.80
2023-02-24T00:30:24.211Z,25.57
2023-02-24T00:30:56.185Z,26.57
2023-02-24T00:31:31.215Z,27.87
2023-02-24T00:32:06.878Z,27.53
2023-02-24T00:32:39.069Z,29.73
2023-02-24T00:33:12.534Z,29.73
2023-02-24T00:33:46.556Z,26.27
2023-02-24T00:34:18.389Z,26.43
2023-02-24T00:34:50.233Z,26.97
2023-02-24T00:35:21.961Z,24.80
2023-02-24T00:35:53.811Z,26.07
2023-02-24T00:36:28.785Z,27.03
2023-02-24T00:37:02.044Z,27.20
2023-02-24T00:37:33.814Z,27.97
2023-02-24T00:38:05.566Z,27.47
2023-02-24T00:38:38.712Z,27.03
2023-02-24T00:39:11.573Z,24.70
2023-02-24T00:39:44.541Z,27.20
2023-02-24T00:40:16.466Z,28.23
2023-02-24T00:40:48.451Z,27.60
2023-02-24T00:41:22.615Z,28.67
2023-02-24T00:41:58.271Z,27.10
2023-02-24T00:42:30.104Z,27.17
2023-02-24T00:43:01.895Z,27.63
2023-02-24T00:43:37.333Z,25.90
2023-02-24T00:44:13.221Z,27.07
2023-02-24T00:44:46.832Z,27.00
2023-02-24T00:45:18.606Z,25.53
2023-02-24T00:45:51.767Z,25.03
2023-02-24T00:46:26.352Z,25.27
2023-02-24T00:46:58.760Z,27.33
2023-02-24T00:47:30.489Z,28.10
2023-02-24T00:48:04.721Z,26.37
2023-02-24T00:48:42.354Z,26.47
2023-02-24T00:49:19.556Z,28.13
2023-02-24T00:49:51.343Z,28.60
2023-02-24T00:50:25.005Z,28.60
2023-02-24T00:50:56.797Z,27.13
2023-02-24T00:51:28.651Z,26.53
2023-02-24T00:52:00.507Z,27.40
2023-02-24T00:52:32.268Z,28.20
2023-02-24T00:53:04.008Z,28.17
2023-02-24T00:53:36.480Z,27.23
2023-02-24T00:54:15.167Z,27.67
2023-02-24T00:54:49.358Z,27.60
2023-02-24T00:55:23.276Z,27.80
2023-02-24T00:56:01.846Z,26.37
2023-02-24T00:56:34.768Z,27.77
2023-02-24T00:57:08.373Z,27.00
2023-02-24T00:57:41.312Z,25.03
2023-02-24T00:58:13.842Z,25.83
2023-02-24T00:58:45.574Z,25.63
2023-02-24T00:59:24.215Z,26.07
2023-02-24T00:59:58.453Z,24.67
2023-02-24T01:00:35.994Z,24.50
2023-02-24T01:01:19.618Z,25.40
2023-02-24T01:01:54.850Z,27.47
2023-02-24T01:02:26.835Z,25.77
2023-02-24T01:02:59.488Z,25.40
2023-02-24T01:03:32.459Z,26.40
2023-02-24T01:04:06.465Z,26.40
2023-02-24T01:04:38.909Z,25.07
2023-02-24T01:05:12.145Z,26.23
2023-02-24T01:05:43.919Z,26.83
2023-02-24T01:06:20.629Z,23.97
2023-02-24T01:07:00.451Z,24.43
2023-02-24T01:07:32.500Z,26.67
2023-02-24T01:08:04.346Z,26.13
2023-02-24T01:08:40.298Z,26.73
2023-02-24T01:09:15.190Z,26.07
2023-02-24T01:09:50.875Z,26.60
2023-02-24T01:10:23.554Z,23.40
2023-02-24T01:11:18.466Z,25.17
2023-02-24T01:12:22.393Z,23.80
2023-02-24T01:12:54.252Z,23.70
2023-02-24T01:13:25.944Z,23.43
2023-02-24T01:13:57.785Z,24.77
2023-02-24T01:14:32.659Z,24.73
2023-02-24T01:15:09.068Z,24.83
2023-02-24T01:15:42.318Z,23.87
2023-02-24T01:16:14.813Z,24.67
2023-02-24T01:16:50.650Z,25.70
2023-02-24T01:17:23.407Z,23.27
2023-02-24T01:17:55.192Z,23.47
2023-02-24T01:18:26.967Z,23.23
2023-02-24T01:18:58.738Z,23.13
2023-02-24T01:19:32.486Z,24.10
2023-02-24T01:20:15.224Z,23.23
2023-02-24T01:20:47.025Z,22.60
2023-02-24T01:21:20.611Z,22.63
2023-02-24T01:21:55.271Z,24.43
2023-02-24T01:22:27.424Z,24.23
2023-02-24T01:22:59.190Z,25.50
2023-02-24T01:23:30.987Z,26.03
2023-02-24T01:24:03.333Z,25.50
2023-02-24T01:24:38.356Z,25.80
2023-02-24T01:25:10.176Z,24.23
2023-02-24T01:25:47.407Z,23.90
2023-02-24T01:26:20.297Z,23.47
2023-02-24T01:26:52.657Z,24.43
2023-02-24T01:27:24.624Z,22.73
2023-02-24T01:27:56.463Z,22.90
2023-02-24T01:28:28.960Z,22.77
2023-02-24T01:29:00.769Z,23.00
2023-02-24T01:29:33.281Z,23.60
2023-02-24T01:30:05.504Z,24.03
2023-02-24T01:30:37.895Z,23.43
2023-02-24T01:31:09.881Z,23.33
2023-02-24T01:31:43.748Z,23.97
2023-02-24T01:32:19.655Z,25.73
2023-02-24T01:32:51.889Z,27.17
2023-02-24T01:33:23.841Z,28.33
2023-02-24T01:33:55.788Z,29.17
2023-02-24T01:34:28.537Z,28.43
2023-02-24T01:35:00.279Z,28.87
2023-02-24T01:35:34.609Z,29.80
2023-02-24T01:36:15.000Z,29.03
2023-02-24T01:36:47.421Z,28.13
2023-02-24T01:37:20.090Z,28.63
2023-02-24T01:37:53.523Z,28.30
2023-02-24T01:38:25.576Z,27.37
2023-02-24T01:38:59.558Z,25.97
2023-02-24T01:39:31.535Z,27.00
2023-02-24T01:40:11.975Z,27.87
2023-02-24T01:40:43.758Z,27.90
2023-02-24T01:41:22.357Z,28.10
2023-02-24T01:41:54.284Z,28.13
2023-02-24T01:42:26.504Z,29.93
2023-02-24T01:42:58.386Z,27.97
2023-02-24T01:43:30.665Z,26.43
2023-02-24T01:44:29.518Z,27.20
2023-02-24T01:45:12.841Z,25.97
2023-02-24T01:45:44.864Z,28.97
2023-02-24T01:46:17.683Z,26.40
2023-02-24T01:46:53.119Z,26.10
2023-02-24T01:47:29.165Z,25.87
2023-02-24T01:48:06.636Z,25.83
2023-02-24T01:48:41.929Z,25.93
2023-02-24T01:49:34.630Z,26.13
2023-02-24T01:50:09.928Z,28.00
2023-02-24T01:50:41.822Z,27.27
2023-02-24T01:51:13.627Z,26.30
2023-02-24T01:51:54.060Z,25.50
2023-02-24T01:52:34.641Z,25.13
2023-02-24T01:53:08.617Z,25.40
2023-02-24T01:53:40.397Z,25.40
2023-02-24T01:54:16.549Z,25.47
2023-02-24T01:54:59.870Z,25.90
2023-02-24T01:55:36.988Z,26.50
2023-02-24T01:56:13.793Z,25.73
2023-02-24T01:56:50.094Z,26.00
2023-02-24T01:57:26.102Z,26.77
2023-02-24T01:58:01.189Z,28.07
2023-02-24T01:58:34.363Z,28.67
2023-02-24T01:59:06.239Z,27.17
2023-02-24T01:59:38.758Z,26.37
2023-02-24T02:00:19.540Z,27.77
2023-02-24T02:00:52.180Z,28.60
2023-02-24T02:01:24.483Z,30.27
2023-02-24T02:02:06.735Z,28.60
2023-02-24T02:02:42.561Z,28.53
2023-02-24T02:03:36.405Z,29.43
2023-02-24T02:04:43.205Z,29.17
2023-02-24T02:05:15.066Z,26.93
2023-02-24T02:05:51.769Z,26.17
2023-02-24T02:06:24.261Z,26.63
2023-02-24T02:06:56.184Z,27.83
2023-02-24T02:07:30.031Z,26.87
2023-02-24T02:08:03.268Z,27.67
2023-02-24T02:08:38.895Z,25.87
2023-02-24T02:09:14.233Z,25.40
2023-02-24T02:09:47.469Z,24.77
2023-02-24T02:10:19.380Z,26.77
2023-02-24T02:10:58.875Z,26.43
2023-02-24T02:11:30.741Z,24.73
2023-02-24T02:12:02.594Z,24.77
2023-02-24T02:12:37.684Z,24.33
2023-02-24T02:13:10.350Z,25.10
2023-02-24T02:13:45.776Z,25.77
2023-02-24T02:14:21.913Z,24.43
2023-02-24T02:14:58.348Z,23.10
2023-02-24T02:15:37.498Z,24.57
2023-02-24T02:16:18.578Z,24.33
2023-02-24T02:17:12.334Z,26.73
2023-02-24T02:18:16.968Z,23.70
2023-02-24T02:19:07.734Z,24.53
2023-02-24T02:20:16.118Z,26.73
2023-02-24T02:21:25.237Z,24.83
2023-02-24T02:22:19.765Z,26.97
2023-02-24T02:23:42.874Z,24.30
2023-02-24T02:24:22.409Z,26.30
2023-02-24T02:25:25.607Z,28.47
2023-02-24T02:26:03.321Z,26.03
2023-02-24T02:26:35.782Z,24.90
2023-02-24T02:27:21.443Z,27.10
2023-02-24T02:28:10.189Z,27.23
2023-02-24T02:29:03.370Z,26.47
2023-02-24T02:29:52.846Z,25.33
2023-02-24T02:31:09.448Z,27.97
2023-02-24T02:32:10.983Z,24.03
2023-02-24T02:32:52.486Z,28.57
2023-02-24T02:34:01.314Z,26.90
2023-02-24T02:35:11.585Z,26.53
2023-02-24T02:35:59.441Z,26.40
2023-02-24T02:36:58.706Z,25.73
2023-02-24T02:37:43.241Z,27.03
2023-02-24T02:38:26.151Z,27.13
2023-02-24T02:39:04.048Z,24.87
2023-02-24T02:40:19.851Z,24.47
2023-02-24T02:41:23.384Z,24.47
2023-02-24T02:42:21.727Z,25.83
2023-02-24T02:43:14.366Z,27.10
2023-02-24T02:43:54.274Z,26.07
2023-02-24T02:44:33.297Z,25.47
2023-02-24T02:45:08.622Z,23.83
2023-02-24T02:46:11.264Z,23.83
2023-02-24T02:47:09.094Z,25.30
2023-02-24T02:47:55.072Z,25.17
2023-02-24T02:48:47.841Z,26.40
2023-02-24T02:49:48.018Z,27.50
2023-02-24T02:50:46.164Z,24.70
2023-02-24T02:51:25.307Z,23.80
2023-02-24T02:52:05.800Z,25.50
2023-02-24T02:52:51.176Z,26.87
2023-02-24T02:53:27.849Z,26.70
2023-02-24T02:54:10.472Z,26.27
2023-02-24T02:55:08.440Z,26.17
2023-02-24T02:55:53.636Z,26.60
2023-02-24T02:56:31.011Z,27.27
2023-02-24T02:57:25.153Z,27.07
2023-02-24T02:58:01.636Z,26.43
2023-02-24T02:58:38.440Z,27.63
2023-02-24T02:59:15.970Z,27.87
2023-02-24T02:59:59.154Z,27.60
2023-02-24T03:00:42.187Z,25.13
2023-02-24T03:01:18.807Z,24.27
2023-02-24T03:02:01.276Z,25.80
2023-02-24T03:02:38.370Z,27.53
2023-02-24T03:03:15.289Z,27.17
2023-02-24T03:03:53.727Z,27.40
2023-02-24T03:04:27.251Z,25.37
2023-02-24T03:05:02.330Z,24.70
2023-02-24T03:05:47.151Z,24.60
2023-02-24T03:06:32.987Z,28.10
2023-02-24T03:07:06.797Z,27.57
2023-02-24T03:07:45.449Z,24.97
2023-02-24T03:08:25.922Z,26.33
2023-02-24T03:09:19.253Z,27.67
2023-02-24T03:09:57.847Z,26.60
2023-02-24T03:10:34.312Z,27.97
2023-02-24T03:11:14.226Z,26.33
2023-02-24T03:11:53.799Z,27.33
2023-02-24T03:12:30.710Z,27.17
2023-02-24T03:13:06.381Z,25.50
2023-02-24T03:13:43.094Z,25.63
2023-02-24T03:14:19.987Z,28.37
2023-02-24T03:15:00.046Z,26.00
2023-02-24T03:15:34.417Z,24.03
2023-02-24T03:16:09.503Z,25.87
2023-02-24T03:16:46.238Z,25.77
2023-02-24T03:17:32.344Z,25.43
2023-02-24T03:18:12.062Z,26.13
2023-02-24T03:18:57.912Z,27.47
2023-02-24T03:19:37.466Z,26.33
2023-02-24T03:20:29.389Z,27.67
2023-02-24T03:21:09.468Z,26.80
2023-02-24T03:21:47.746Z,25.43
2023-02-24T03:22:27.675Z,24.93
2023-02-24T03:23:07.675Z,25.30
2023-02-24T03:23:50.759Z,25.60
2023-02-24T03:24:24.442Z,25.57
2023-02-24T03:24:56.331Z,25.70
2023-02-24T03:25:40.213Z,26.37
2023-02-24T03:26:32.963Z,25.47
2023-02-24T03:27:20.140Z,28.00
2023-02-24T03:28:02.818Z,26.87
2023-02-24T03:28:41.863Z,27.77
2023-02-24T03:29:25.503Z,26.33
2023-02-24T03:30:07.470Z,26.07
2023-02-24T03:30:44.619Z,27.30
2023-02-24T03:31:28.833Z,27.00
2023-02-24T03:32:12.509Z,25.27
2023-02-24T03:32:57.766Z,25.17
2023-02-24T03:33:41.077Z,26.53
2023-02-24T03:34:24.616Z,26.23
2023-02-24T03:34:56.897Z,26.33
2023-02-24T03:35:37.351Z,28.17
2023-02-24T03:36:09.315Z,27.07
2023-02-24T03:36:43.211Z,26.80
2023-02-24T03:37:15.575Z,27.43
2023-02-24T03:37:50.054Z,28.27
2023-02-24T03:38:24.542Z,26.20
2023-02-24T03:38:58.735Z,26.07
2023-02-24T03:39:30.586Z,26.40
2023-02-24T03:40:08.464Z,26.97
2023-02-24T03:40:43.589Z,27.77
2023-02-24T03:41:17.210Z,26.43
2023-02-24T03:42:03.806Z,26.97
2023-02-24T03:42:35.822Z,26.70
2023-02-24T03:43:25.780Z,26.67
2023-02-24T03:44:00.206Z,28.37
2023-02-24T03:44:32.749Z,29.00
2023-02-24T03:45:06.525Z,28.83
2023-02-24T03:45:40.960Z,29.47
2023-02-24T03:46:15.369Z,31.67
2023-02-24T03:46:47.621Z,32.43
2023-02-24T03:47:20.630Z,29.73
2023-02-24T03:47:56.160Z,28.40
2023-02-24T03:48:29.172Z,27.87
2023-02-24T03:49:17.088Z,29.33
2023-02-24T03:49:50.326Z,26.47
2023-02-24T03:50:22.418Z,25.27
2023-02-24T03:50:55.155Z,27.23
2023-02-24T03:51:27.755Z,27.90
2023-02-24T03:52:08.884Z,27.33
2023-02-24T03:53:01.633Z,28.30
2023-02-24T03:54:31.123Z,27.47
2023-02-24T03:55:11.698Z,29.33
2023-02-24T03:56:07.033Z,30.17
2023-02-24T03:57:00.012Z,30.67
2023-02-24T03:58:00.103Z,29.70
2023-02-24T03:58:52.647Z,29.53
2023-02-24T03:59:34.253Z,29.33
2023-02-24T04:00:34.167Z,28.33
2023-02-24T04:01:25.512Z,29.30
2023-02-24T04:02:06.510Z,29.23
2023-02-24T04:02:38.829Z,29.70
2023-02-24T04:03:20.076Z,28.40
2023-02-24T04:04:03.822Z,28.93
2023-02-24T04:04:35.607Z,30.53
2023-02-24T04:05:22.101Z,29.60
2023-02-24T04:06:09.184Z,30.43
2023-02-24T04:06:56.471Z,29.93
2023-02-24T04:07:40.137Z,29.20
2023-02-24T04:08:12.634Z,28.17
2023-02-24T04:09:33.431Z,27.43
2023-02-24T04:10:12.739Z,28.73
2023-02-24T04:10:53.692Z,28.20
2023-02-24T04:11:49.207Z,27.57
2023-02-24T04:12:32.018Z,28.97
2023-02-24T04:13:36.158Z,28.27
2023-02-24T04:14:31.237Z,29.47
2023-02-24T04:15:15.426Z,27.87
2023-02-24T04:16:01.929Z,25.60
2023-02-24T04:16:48.359Z,27.97
2023-02-24T04:18:01.300Z,28.10
2023-02-24T04:18:33.435Z,28.97
2023-02-24T04:19:14.139Z,29.03
2023-02-24T04:19:51.316Z,36.30
2023-02-24T04:20:29.494Z,44.70
2023-02-24T04:21:04.957Z,47.60
2023-02-24T04:21:40.320Z,52.27
2023-02-24T04:22:15.656Z,50.47
2023-02-24T04:22:51.921Z,50.03
2023-02-24T04:23:29.482Z,45.60
2023-02-24T04:24:11.947Z,43.83
2023-02-24T04:24:49.005Z,44.73
2023-02-24T04:25:26.956Z,46.13
2023-02-24T04:25:58.961Z,43.83
2023-02-24T04:26:31.131Z,44.87
2023-02-24T04:27:09.028Z,43.23
2023-02-24T04:27:43.126Z,42.70
2023-02-24T04:28:18.921Z,45.50
2023-02-24T04:28:52.102Z,43.83
2023-02-24T04:29:26.715Z,45.57
2023-02-24T04:30:02.051Z,45.37
2023-02-24T04:30:39.609Z,46.07
2023-02-24T04:31:17.667Z,42.03
2023-02-24T04:31:58.384Z,41.63
2023-02-24T04:32:31.599Z,41.23
2023-02-24T04:33:03.608Z,41.57
2023-02-24T04:33:35.875Z,42.50
2023-02-24T04:34:09.577Z,44.07
2023-02-24T04:34:42.519Z,42.23
2023-02-24T04:35:19.472Z,42.23
2023-02-24T04:35:51.809Z,41.53
2023-02-24T04:36:24.912Z,42.20
2023-02-24T04:36:59.316Z,43.23
2023-02-24T04:37:33.872Z,43.07
2023-02-24T04:38:05.621Z,42.00
2023-02-24T04:38:37.471Z,37.67
2023-02-24T04:39:09.217Z,40.10
2023-02-24T04:39:41.064Z,42.53
2023-02-24T04:40:22.359Z,41.33
2023-02-24T04:40:54.476Z,40.67
2023-02-24T04:41:26.227Z,40.43
2023-02-24T04:42:01.761Z,40.83
2023-02-24T04:42:33.620Z,36.83
2023-02-24T04:43:05.584Z,32.13
2023-02-24T04:43:37.560Z,30.07
2023-02-24T04:44:09.392Z,31.43
2023-02-24T04:44:42.908Z,32.03
2023-02-24T04:45:20.362Z,35.23
2023-02-24T04:45:52.156Z,35.87
2023-02-24T04:46:24.084Z,38.20
2023-02-24T04:46:56.597Z,39.23
2023-02-24T04:47:28.945Z,40.60
2023-02-24T04:48:05.574Z,38.60
2023-02-24T04:48:39.099Z,35.17
2023-02-24T04:49:11.925Z,37.30
2023-02-24T04:49:44.719Z,35.97
2023-02-24T04:50:23.124Z,35.83
2023-02-24T04:50:55.218Z,39.90
2023-02-24T04:51:27.162Z,40.33
2023-02-24T04:51:58.969Z,41.13
2023-02-24T04:52:30.711Z,41.37
2023-02-24T04:53:09.514Z,40.33
2023-02-24T04:53:41.343Z,36.43
2023-02-24T04:54:17.558Z,37.33
2023-02-24T04:54:49.503Z,39.07
2023-02-24T04:55:24.778Z,38.73
2023-02-24T04:55:56.922Z,36.93
2023-02-24T04:56:29.063Z,37.27
2023-02-24T04:57:00.877Z,38.70
2023-02-24T04:57:37.668Z,38.83
2023-02-24T04:58:19.422Z,40.57
2023-02-24T04:58:51.281Z,37.93
2023-02-24T04:59:24.977Z,39.03
2023-02-24T04:59:57.676Z,38.80
2023-02-24T05:00:36.214Z,38.93
2023-02-24T05:01:13.040Z,38.90
2023-02-24T05:01:46.673Z,40.03
2023-02-24T05:02:20.626Z,39.27
2023-02-24T05:02:56.958Z,38.30
2023-02-24T05:03:30.211Z,39.87
2023-02-24T05:04:02.186Z,40.47
2023-02-24T05:04:39.029Z,41.00
2023-02-24T05:05:10.917Z,39.23
2023-02-24T05:05:56.766Z,39.10
2023-02-24T05:06:28.605Z,36.93
2023-02-24T05:07:00.614Z,34.70
2023-02-24T05:07:32.435Z,36.53
2023-02-24T05:08:08.015Z,36.33
2023-02-24T05:08:40.509Z,36.47
2023-02-24T05:09:18.283Z,36.90
2023-02-24T05:09:50.159Z,38.97
2023-02-24T05:10:28.252Z,39.53
2023-02-24T05:11:04.101Z,39.77
2023-02-24T05:11:36.710Z,40.53
2023-02-24T05:12:09.609Z,38.10
2023-02-24T05:12:42.666Z,38.17
2023-02-24T05:13:19.698Z,39.43
2023-02-24T05:13:51.495Z,37.70
2023-02-24T05:14:25.029Z,37.40
2023-02-24T05:15:01.299Z,37.83
2023-02-24T05:15:34.057Z,38.00
2023-02-24T05:16:08.507Z,37.73
2023-02-24T05:16:45.529Z,37.57
2023-02-24T05:17:18.796Z,35.67
2023-02-24T05:17:52.615Z,38.77
2023-02-24T05:18:24.642Z,38.60
2023-02-24T05:19:15.237Z,40.13
2023-02-24T05:20:05.651Z,38.80
2023-02-24T05:20:58.436Z,33.57
2023-02-24T05:21:37.537Z,38.27
2023-02-24T05:22:14.589Z,38.63
2023-02-24T05:22:51.882Z,38.73
2023-02-24T05:23:28.230Z,40.37
2023-02-24T05:24:06.826Z,37.27
2023-02-24T05:24:38.860Z,39.67
2023-02-24T05:25:14.435Z,40.43
2023-02-24T05:25:46.487Z,39.73
2023-02-24T05:26:19.993Z,38.33
2023-02-24T05:26:58.213Z,40.10
2023-02-24T05:27:29.929Z,39.60
2023-02-24T05:28:04.143Z,39.23
2023-02-24T05:28:41.089Z,41.30
2023-02-24T05:29:14.059Z,41.53
2023-02-24T05:29:46.001Z,39.20
2023-02-24T05:30:18.405Z,40.47
2023-02-24T05:30:50.870Z,42.63
2023-02-24T05:31:28.974Z,42.30
2023-02-24T05:32:02.228Z,41.50
2023-02-24T05:32:34.777Z,39.80
2023-02-24T05:33:08.181Z,38.73
2023-02-24T05:33:45.329Z,37.23
2023-02-24T05:34:17.447Z,35.40
2023-02-24T05:34:49.268Z,36.37
2023-02-24T05:35:21.051Z,38.10
2023-02-24T05:35:52.791Z,37.30
2023-02-24T05:36:30.573Z,35.43
2023-02-24T05:37:10.257Z,36.50
2023-02-24T05:37:45.087Z,36.47
2023-02-24T05:38:19.812Z,37.60
2023-02-24T05:39:07.067Z,38.30
2023-02-24T05:39:38.854Z,39.50
2023-02-24T05:40:13.552Z,39.27
2023-02-24T05:40:48.884Z,37.63
2023-02-24T05:41:22.513Z,38.23
2023-02-24T05:41:57.144Z,40.03
2023-02-24T05:42:35.340Z,40.13
2023-02-24T05:43:07.261Z,38.97
2023-02-24T05:43:39.426Z,36.83
2023-02-24T05:44:13.904Z,36.77
2023-02-24T05:44:46.595Z,36.20
2023-02-24T05:45:18.596Z,35.80
2023-02-24T05:45:50.351Z,36.13
2023-02-24T05:46:29.754Z,35.67
2023-02-24T05:47:01.889Z,35.27
2023-02-24T05:47:34.901Z,35.73
2023-02-24T05:48:06.770Z,38.87
2023-02-24T05:48:38.599Z,39.10
2023-02-24T05:49:23.843Z,40.60
2023-02-24T05:49:59.055Z,40.10
2023-02-24T05:50:32.378Z,40.23
2023-02-24T05:51:08.139Z,39.20
2023-02-24T05:51:43.564Z,40.37
2023-02-24T05:52:15.447Z,40.20
2023-02-24T05:52:48.601Z,40.30
2023-02-24T05:53:21.147Z,39.23
2023-02-24T05:53:56.561Z,39.53
2023-02-24T05:54:32.267Z,35.77
2023-02-24T05:55:07.221Z,36.13
2023-02-24T05:55:39.171Z,35.57
2023-02-24T05:56:11.575Z,34.73
2023-02-24T05:56:43.938Z,35.80
2023-02-24T05:57:24.929Z,35.63
2023-02-24T05:57:57.748Z,35.27
2023-02-24T05:58:29.734Z,37.07
2023-02-24T05:59:04.887Z,37.80
2023-02-24T05:59:36.788Z,39.60
2023-02-24T06:00:14.793Z,46.43
2023-02-24T06:00:46.685Z,66.93
2023-02-24T06:01:20.230Z,59.87
2023-02-24T06:01:55.057Z,52.60
2023-02-24T06:02:37.570Z,43.80
2023-02-24T06:03:17.382Z,44.10
2023-02-24T06:03:54.522Z,42.03
2023-02-24T06:04:45.890Z,41.17
2023-02-24T06:05:28.284Z,40.90
2023-02-24T06:06:05.590Z,38.60
2023-02-24T06:06:41.042Z,39.27
2023-02-24T06:07:19.426Z,39.17
2023-02-24T06:08:03.188Z,40.10
2023-02-24T06:08:42.262Z,36.30
2023-02-24T06:09:14.455Z,37.57
2023-02-24T06:09:50.247Z,37.20
2023-02-24T06:10:22.584Z,40.23
2023-02-24T06:10:54.761Z,51.80
2023-02-24T06:11:26.588Z,59.37
2023-02-24T06:11:58.568Z,83.63
2023-02-24T06:12:34.748Z,40.97
2023-02-24T06:13:09.606Z,42.67
2023-02-24T06:13:45.075Z,43.43
2023-02-24T06:14:16.931Z,70.07
2023-02-24T06:14:49.034Z,82.57
2023-02-24T06:15:20.796Z,48.03
2023-02-24T06:15:57.303Z,43.83
2023-02-24T06:16:29.829Z,43.80
2023-02-24T06:17:04.806Z,43.33
2023-02-24T06:17:36.642Z,41.67
2023-02-24T06:18:11.761Z,40.53
2023-02-24T06:18:49.424Z,41.90
2023-02-24T06:19:21.161Z,44.47
2023-02-24T06:19:54.303Z,44.70
2023-02-24T06:20:26.877Z,48.43
2023-02-24T06:21:02.815Z,49.70
2023-02-24T06:21:36.122Z,49.93
2023-02-24T06:22:11.831Z,49.83
2023-02-24T06:22:43.641Z,48.73
2023-02-24T06:23:17.049Z,49.77
2023-02-24T06:23:48.943Z,48.43
2023-02-24T06:24:20.980Z,50.40
2023-02-24T06:24:54.730Z,56.70
2023-02-24T06:25:29.754Z,60.50
2023-02-24T06:26:04.110Z,56.60
2023-02-24T06:26:36.944Z,53.50
2023-02-24T06:27:17.298Z,51.40
2023-02-24T06:27:53.272Z,49.33
2023-02-24T06:28:25.311Z,50.17
2023-02-24T06:28:58.805Z,57.13
2023-02-24T06:29:30.905Z,64.57
2023-02-24T06:30:02.722Z,60.97
2023-02-24T06:30:35.185Z,54.53
2023-02-24T06:31:07.063Z,84.47
2023-02-24T06:31:39.107Z,126.87
2023-02-24T06:32:11.858Z,122.33
2023-02-24T06:32:44.939Z,81.10
2023-02-24T06:33:16.803Z,67.53
2023-02-24T06:33:48.607Z,59.17
2023-02-24T06:34:21.431Z,52.23
2023-02-24T06:34:57.607Z,50.50
2023-02-24T06:35:29.598Z,49.07
2023-02-24T06:36:03.656Z,47.53
2023-02-24T06:36:35.388Z,47.83
2023-02-24T06:37:08.694Z,48.63
2023-02-24T06:37:41.255Z,48.30
2023-02-24T06:38:14.814Z,47.73
2023-02-24T06:38:47.306Z,48.83
2023-02-24T06:39:20.129Z,49.20
2023-02-24T06:39:51.919Z,47.27
2023-02-24T06:40:24.883Z,46.47
2023-02-24T06:41:04.293Z,46.17
2023-02-24T06:41:38.035Z,46.63
2023-02-24T06:42:12.013Z,42.33
2023-02-24T06:42:48.853Z,42.13
2023-02-24T06:43:20.648Z,41.63
2023-02-24T06:43:53.005Z,43.57
2023-02-24T06:44:25.675Z,42.23
2023-02-24T06:44:57.432Z,43.73
2023-02-24T06:45:30.634Z,41.90
2023-02-24T06:46:02.828Z,42.33
2023-02-24T06:46:34.757Z,43.07
2023-02-24T06:47:10.611Z,43.00
2023-02-24T06:47:48.860Z,40.53
2023-02-24T06:48:23.012Z,42.43
2023-02-24T06:48:54.762Z,40.93
2023-02-24T06:49:27.150Z,41.63
2023-02-24T06:49:58.938Z,39.37
2023-02-24T06:50:31.081Z,41.00
2023-02-24T06:51:07.649Z,42.90
2023-02-24T06:51:39.633Z,41.77
2023-02-24T06:52:11.976Z,41.60
2023-02-24T06:52:43.829Z,41.07
2023-02-24T06:53:19.044Z,41.43
2023-02-24T06:53:52.334Z,38.60
2023-02-24T06:54:30.603Z,40.13
2023-02-24T06:55:07.124Z,41.57
2023-02-24T06:55:38.936Z,39.73
2023-02-24T06:56:15.555Z,39.87
2023-02-24T06:56:47.850Z,43.07
2023-02-24T06:57:20.776Z,43.13
2023-02-24T06:58:04.483Z,42.63
2023-02-24T06:58:39.218Z,42.20
2023-02-24T06:59:13.005Z,41.50
2023-02-24T06:59:46.201Z,42.97
2023-02-24T07:00:25.136Z,42.20
2023-02-24T07:00:57.053Z,45.30
2023-02-24T07:01:29.414Z,46.67
2023-02-24T07:02:04.817Z,42.60
2023-02-24T07:02:39.703Z,40.93
2023-02-24T07:03:16.639Z,44.30
2023-02-24T07:04:03.754Z,41.60
2023-02-24T07:04:43.792Z,43.57
2023-02-24T07:05:17.141Z,40.43
2023-02-24T07:05:54.228Z,41.87
2023-02-24T07:06:26.254Z,39.13
2023-02-24T07:07:03.222Z,42.30
2023-02-24T07:07:35.195Z,43.57
2023-02-24T07:08:08.540Z,39.23
2023-02-24T07:08:41.471Z,38.63
2023-02-24T07:09:16.420Z,38.97
2023-02-24T07:09:48.246Z,38.70
2023-02-24T07:10:20.037Z,39.50
2023-02-24T07:10:54.089Z,41.10
2023-02-24T07:11:26.314Z,43.07
2023-02-24T07:11:59.500Z,42.67
2023-02-24T07:12:31.397Z,41.03
2023-02-24T07:13:03.194Z,38.43
2023-02-24T07:13:36.882Z,37.90
2023-02-24T07:14:11.369Z,35.07
2023-02-24T07:14:44.108Z,33.70
2023-02-24T07:15:17.146Z,35.00
2023-02-24T07:15:50.252Z,36.87
2023-02-24T07:16:28.817Z,36.20
2023-02-24T07:17:00.871Z,32.70
2023-02-24T07:17:32.655Z,33.87
2023-02-24T07:18:07.158Z,32.37
2023-02-24T07:18:43.051Z,34.00
2023-02-24T07:19:15.935Z,33.57
2023-02-24T07:19:47.668Z,35.63
2023-02-24T07:20:26.292Z,36.47
2023-02-24T07:21:05.273Z,32.50
2023-02-24T07:21:43.444Z,33.37
2023-02-24T07:22:17.012Z,34.30
2023-02-24T07:22:48.767Z,33.23
2023-02-24T07:23:21.538Z,35.07
2023-02-24T07:23:58.801Z,35.23
2023-02-24T07:24:36.857Z,35.07
2023-02-24T07:25:09.157Z,34.47
2023-02-24T07:25:43.403Z,35.23
2023-02-24T07:26:22.453Z,34.67
2023-02-24T07:26:59.418Z,35.27
2023-02-24T07:27:31.351Z,33.33
2023-02-24T07:28:03.173Z,35.07
2023-02-24T07:28:34.928Z,36.57
2023-02-24T07:29:06.713Z,36.73
2023-02-24T07:29:39.757Z,33.43
2023-02-24T07:30:12.222Z,33.00
2023-02-24T07:30:44.277Z,35.47
2023-02-24T07:31:19.495Z,34.43
2023-02-24T07:31:55.067Z,31.57
2023-02-24T07:32:27.967Z,34.00
2023-02-24T07:33:00.440Z,35.53
2023-02-24T07:33:34.342Z,35.37
2023-02-24T07:34:06.722Z,35.27
2023-02-24T07:34:41.510Z,32.83
2023-02-24T07:35:14.643Z,33.40
2023-02-24T07:35:52.332Z,33.60
2023-02-24T07:36:30.183Z,33.30
2023-02-24T07:37:08.051Z,31.70
2023-02-24T07:37:41.805Z,32.10
2023-02-24T07:38:17.463Z,33.07
2023-02-24T07:38:53.962Z,34.10
2023-02-24T07:39:26.283Z,32.83
2023-02-24T07:39:58.382Z,32.73
2023-02-24T07:40:34.021Z,32.00
2023-02-24T07:41:07.258Z,32.30
2023-02-24T07:41:39.040Z,33.17
2023-02-24T07:42:15.109Z,34.20
2023-02-24T07:42:47.873Z,34.73
2023-02-24T07:43:19.657Z,33.80
2023-02-24T07:43:53.056Z,32.30
2023-02-24T07:44:25.243Z,32.73
2023-02-24T07:44:57.282Z,32.20
2023-02-24T07:45:29.835Z,31.50
2023-02-24T07:46:11.902Z,38.30
2023-02-24T07:46:43.839Z,43.77
2023-02-24T07:47:16.151Z,43.53
2023-02-24T07:47:48.095Z,46.23
2023-02-24T07:48:21.290Z,47.27
2023-02-24T07:48:54.076Z,46.77
2023-02-24T07:49:30.173Z,45.50
2023-02-24T07:50:10.816Z,48.10
2023-02-24T07:50:43.649Z,48.53
2023-02-24T07:51:17.750Z,48.40
2023-02-24T07:51:53.173Z,46.60
2023-02-24T07:52:24.973Z,47.80
2023-02-24T07:52:58.028Z,49.53
2023-02-24T07:53:29.938Z,45.70